»·PEaware :: N634CZ L88-KSBP

N634CZ :: L88-KSBP

FLIGHT INFORMATION

Flight Status: Arrived
Operator: Privately registered:
United States
More flights under this callsign
Pilot: Greg L. (27107)
Aircraft: CESSNA 172 SKYHAWK
(C172)
More flights by this aircraft type
Origin: L88 New Cuyama
United States
Destination: KSBP San Luis Co Regl
United States
More flights between these airports :: More routes between these airports
Route: FLW
File this flight plan on PilotEdge
Remarks:
Altitude:
(Current/Filed)
6,500ft
Speed:
(Current/Filed)
110kts
Departed: 08-Feb-20 04:38 PM
Arrived: 08-Feb-20 05:13 PM
Distance/Time
Traveled:
0nm/0:35
Distance/Time
To Go:
Arrived

Flight Plot

Page will automatically refresh every two minutes.


Map Options




Map Legend


Flown Route
Filed Route
Departure Airport
Arrival Airport
Navaid (VOR, NDB)
Fix

Horizontal Profiles

Position Reports

Time Latitude Longitude Heading Altitude Ground
Speed
08-Feb-20 16:27 34.942854 -119.690285 204 2156ft 0kts
08-Feb-20 16:28 34.942854 -119.690285 204 2156ft 0kts
08-Feb-20 16:29 34.942731 -119.690164 24 2157ft 1kts
08-Feb-20 16:30 34.942673 -119.691197 199 2155ft 1kts
08-Feb-20 16:31 34.942647 -119.691208 195 2155ft 0kts
08-Feb-20 16:32 34.942156 -119.690952 119 2156ft 10kts
08-Feb-20 16:33 34.939665 -119.684852 114 2180ft 13kts
08-Feb-20 16:34 34.938640 -119.682377 116 2190ft 10kts
08-Feb-20 16:35 34.937617 -119.679965 10 2200ft 1kts
08-Feb-20 16:36 34.937678 -119.680046 291 2200ft 0kts
08-Feb-20 16:37 34.941171 -119.688050 297 2342ft 74kts
08-Feb-20 16:38 34.954159 -119.707829 314 3232ft 76kts
08-Feb-20 16:39 34.971355 -119.722888 307 4063ft 74kts
08-Feb-20 16:40 34.984677 -119.741352 311 4860ft 73kts
08-Feb-20 16:41 34.999723 -119.757889 305 5623ft 71kts
08-Feb-20 16:42 35.013351 -119.775576 308 6370ft 70kts
08-Feb-20 16:43 35.029395 -119.797043 309 6586ft 99kts
08-Feb-20 16:44 35.050285 -119.820807 316 6638ft 95kts
08-Feb-20 16:45 35.074226 -119.840474 327 6476ft 103kts
08-Feb-20 16:46 35.090421 -119.864800 286 6478ft 97kts
08-Feb-20 16:47 35.092777 -119.896525 269 6507ft 96kts
08-Feb-20 16:48 35.095499 -119.928418 285 6516ft 94kts
08-Feb-20 16:49 35.101687 -119.959518 280 6526ft 94kts
08-Feb-20 16:50 35.105549 -119.991494 284 6544ft 94kts
08-Feb-20 16:51 35.110760 -120.023024 284 6558ft 94kts
08-Feb-20 16:52 35.115310 -120.054710 282 6564ft 95kts
08-Feb-20 16:53 35.120170 -120.086700 282 6577ft 95kts
08-Feb-20 16:54 35.124859 -120.118784 287 6585ft 95kts
08-Feb-20 16:55 35.130118 -120.150504 287 6600ft 94kts
08-Feb-20 16:56 35.135992 -120.182126 287 6609ft 95kts
08-Feb-20 16:57 35.144168 -120.212713 292 6620ft 94kts
08-Feb-20 16:58 35.152268 -120.243522 291 6629ft 95kts
08-Feb-20 16:59 35.158240 -120.275195 286 6639ft 96kts
08-Feb-20 17:00 35.165449 -120.306356 293 6647ft 95kts
08-Feb-20 17:01 35.172700 -120.337665 281 6603ft 98kts
08-Feb-20 17:02 35.177511 -120.372030 286 6084ft 102kts
08-Feb-20 17:03 35.183612 -120.406366 283 5430ft 101kts
08-Feb-20 17:04 35.187180 -120.442042 288 4775ft 101kts
08-Feb-20 17:05 35.196064 -120.475187 292 4066ft 99kts
08-Feb-20 17:06 35.204398 -120.508674 287 3479ft 100kts
08-Feb-20 17:07 35.207691 -120.543830 276 3156ft 95kts
08-Feb-20 17:08 35.208189 -120.574072 280 2914ft 59kts
08-Feb-20 17:09 35.210253 -120.594549 299 2081ft 59kts
08-Feb-20 17:10 35.219139 -120.610690 306 1113ft 58kts
08-Feb-20 17:11 35.227957 -120.624957 308 384ft 46kts
08-Feb-20 17:12 35.234822 -120.637000 313 216ft 37kts
08-Feb-20 17:13 35.237487 -120.639913 12 216ft 0kts
08-Feb-20 17:14 35.238231 -120.639925 358 216ft 3kts
08-Feb-20 17:15 35.238513 -120.639931 6 216ft 0kts
08-Feb-20 17:16 35.238513 -120.639931 6 216ft 0kts
08-Feb-20 17:17 34.942854 -119.690285 204 2156ft 0kts
08-Feb-20 17:18 34.942854 -119.690285 204 2156ft 0kts
08-Feb-20 17:19 34.942854 -119.690285 204 2156ft 0kts
08-Feb-20 17:20 34.942854 -119.690285 204 2156ft 0kts
08-Feb-20 17:21 34.942854 -119.690285 204 2156ft 0kts
08-Feb-20 17:22 34.942854 -119.690285 204 2156ft 0kts
08-Feb-20 17:23 34.942853 -119.690285 204 2156ft 0kts
08-Feb-20 17:24 34.942853 -119.690285 204 2156ft 0kts
08-Feb-20 17:25 34.942853 -119.690285 204 2156ft 0kts
08-Feb-20 17:26 34.942853 -119.690285 204 2156ft 0kts

Navigation Log

Ident Type
Flight plan parsing failed, navigation log unavailable